Time;durP1;ratioP1;P1;durP2;ratioP2;P2;SDS_P1;SDS_P2;PMS_P1;PMS_P2;Temp;Humidity;BMP_temperature;BMP_pressure;BME280_temperature;BME280_humidity;BME280_pressure;Samples;Min_cycle;Max_cycle;Signal;HPM_P1;HPM_P2
2022/09/15 00:01:00;;;;;;;11.53;5.30;;;15.50;99.90;;;;;;4995874;28;20354;-68
2022/09/15 00:03:27;;;;;;;9.73;4.93;;;15.50;99.90;;;;;;4995570;28;20364;-67
2022/09/15 00:05:53;;;;;;;10.80;4.63;;;15.60;99.90;;;;;;4995749;28;20050;-68
2022/09/15 00:08:20;;;;;;;10.50;4.83;;;15.60;99.90;;;;;;4994865;28;20297;-68
2022/09/15 00:11:01;;;;;;;11.13;4.20;;;15.60;99.90;;;;;;4995702;28;20373;-68
2022/09/15 00:13:27;;;;;;;6.70;3.70;;;15.60;99.90;;;;;;4996186;28;20081;-67
2022/09/15 00:15:53;;;;;;;10.60;3.77;;;15.60;99.90;;;;;;4995612;28;20491;-67
2022/09/15 00:18:19;;;;;;;8.97;3.43;;;15.60;99.90;;;;;;4995370;28;20047;-68
2022/09/15 00:20:45;;;;;;;9.77;3.40;;;15.60;99.90;;;;;;4995496;28;20049;-68
2022/09/15 00:23:12;;;;;;;9.33;3.73;;;15.60;99.90;;;;;;4995154;28;20042;-67
2022/09/15 00:25:47;;;;;;;10.40;3.20;;;15.60;99.90;;;;;;4996096;28;20061;-67
2022/09/15 00:28:14;;;;;;;7.07;3.03;;;15.60;99.90;;;;;;4995355;28;20289;-67
2022/09/15 00:30:45;;;;;;;9.67;3.60;;;15.60;99.90;;;;;;4995338;28;20058;-67
2022/09/15 00:33:12;;;;;;;7.87;3.33;;;15.60;99.90;;;;;;4995701;28;20344;-68
2022/09/15 00:35:39;;;;;;;11.30;3.50;;;15.60;99.90;;;;;;4995492;28;20047;-67
2022/09/15 00:38:06;;;;;;;12.70;3.33;;;15.70;99.90;;;;;;4995143;28;20281;-67
2022/09/15 00:40:33;;;;;;;9.97;3.87;;;15.60;99.90;;;;;;4995660;28;20364;-67
2022/09/15 00:42:59;;;;;;;7.43;3.20;;;15.60;99.90;;;;;;4994810;28;20578;-67
2022/09/15 00:45:25;;;;;;;8.50;3.03;;;15.60;99.90;;;;;;4995056;28;20137;-67
2022/09/15 00:47:51;;;;;;;8.80;3.20;;;15.60;99.90;;;;;;4994957;28;20093;-68
2022/09/15 00:50:19;;;;;;;9.23;3.20;;;15.60;99.90;;;;;;4995204;28;20054;-67
2022/09/15 00:52:53;;;;;;;8.47;2.60;;;15.60;99.90;;;;;;4994764;28;20309;-67
2022/09/15 00:55:34;;;;;;;9.55;2.50;;;15.50;99.90;;;;;;4994946;28;20277;-67
2022/09/15 00:58:10;;;;;;;6.27;2.60;;;15.50;99.90;;;;;;4995245;28;20395;-67
2022/09/15 01:00:42;;;;;;;9.37;2.80;;;15.50;99.90;;;;;;4994774;28;20057;-67
2022/09/15 01:03:09;;;;;;;8.53;2.13;;;15.50;99.90;;;;;;4994780;28;20039;-68
2022/09/15 01:05:43;;;;;;;7.27;2.57;;;15.40;99.90;;;;;;4994671;28;20046;-67
2022/09/15 01:08:16;;;;;;;6.30;1.75;;;15.40;99.90;;;;;;4994645;28;20050;-67
2022/09/15 01:10:42;;;;;;;8.60;1.93;;;15.40;99.90;;;;;;4995191;28;20046;-67
2022/09/15 01:13:13;;;;;;;9.17;2.17;;;15.50;99.90;;;;;;4977118;28;20383;-67
2022/09/15 01:16:05;;;;;;;7.37;2.07;;;15.40;99.90;;;;;;4994578;28;20046;-67
2022/09/15 01:18:42;;;;;;;6.80;2.03;;;15.40;99.90;;;;;;4994857;28;20089;-67
2022/09/15 01:21:20;;;;;;;7.80;1.90;;;15.40;99.90;;;;;;4995000;28;20050;-67
2022/09/15 01:24:05;;;;;;;5.33;1.47;;;15.40;99.90;;;;;;4993682;28;20294;-67
2022/09/15 01:26:56;;;;;;;6.85;1.92;;;15.40;99.90;;;;;;4994819;28;20387;-67
2022/09/15 01:29:45;;;;;;;6.80;1.30;;;15.40;99.90;;;;;;4994641;28;20145;-67
2022/09/15 01:35:54;;;;;;;6.30;1.38;;;15.40;99.90;;;;;;4994875;28;20282;-67
2022/09/15 01:38:19;;;;;;;6.93;1.60;;;15.30;99.90;;;;;;4994163;28;20042;-67
2022/09/15 01:41:23;;;;;;;7.13;1.40;;;15.30;99.90;;;;;;4994605;28;20373;-67
2022/09/15 01:44:04;;;;;;;6.30;1.53;;;15.40;99.90;;;;;;4994914;28;20061;-67
2022/09/15 01:46:40;;;;;;;4.77;1.77;;;15.40;99.90;;;;;;4994190;28;20278;-67
2022/09/15 01:49:09;;;;;;;7.23;1.50;;;15.40;99.90;;;;;;4994123;28;20093;-67
2022/09/15 01:51:37;;;;;;;9.70;1.87;;;15.40;99.90;;;;;;4994273;28;20081;-67
2022/09/15 01:54:05;;;;;;;4.90;1.27;;;15.30;99.90;;;;;;4993941;28;20286;-68
2022/09/15 01:56:31;;;;;;;7.87;1.47;;;15.30;99.90;;;;;;4993998;28;20274;-68
2022/09/15 01:58:57;;;;;;;6.90;1.63;;;15.30;99.90;;;;;;4993880;28;20351;-67
2022/09/15 02:01:39;;;;;;;9.67;1.53;;;15.30;99.90;;;;;;4993960;28;20154;-67
2022/09/15 02:04:17;;;;;;;15.60;2.73;;;15.30;99.90;;;;;;4993869;28;20286;-68
2022/09/15 02:07:10;;;;;;;9.70;2.23;;;15.30;99.90;;;;;;4993930;28;20285;-68
2022/09/15 02:09:43;;;;;;;11.67;1.90;;;15.30;99.90;;;;;;4993849;28;20058;-68
2022/09/15 02:12:32;;;;;;;9.47;1.50;;;15.30;99.90;;;;;;4993956;28;20662;-68
2022/09/15 02:15:04;;;;;;;11.97;1.87;;;15.30;99.90;;;;;;4994428;28;20466;-68
2022/09/15 02:17:34;;;;;;;7.97;1.80;;;15.30;99.90;;;;;;4994398;28;20312;-68
2022/09/15 02:20:22;;;;;;;7.10;1.57;;;15.20;99.90;;;;;;4993821;28;20047;-68
2022/09/15 02:22:54;;;;;;;10.67;2.03;;;15.30;99.90;;;;;;4994046;28;20281;-67
2022/09/15 02:25:27;;;;;;;7.40;1.60;;;15.30;99.90;;;;;;4993634;28;20294;-67
2022/09/15 02:27:56;;;;;;;10.27;1.80;;;15.30;99.90;;;;;;4993784;28;20318;-67
2022/09/15 02:30:22;;;;;;;8.73;1.30;;;15.30;99.90;;;;;;4994203;28;20343;-68
2022/09/15 02:32:55;;;;;;;8.00;1.30;;;15.20;99.90;;;;;;4996088;28;20297;-67
2022/09/15 02:35:23;;;;;;;5.77;1.73;;;15.20;99.90;;;;;;4998008;28;20130;-67
2022/09/15 02:37:50;;;;;;;8.33;1.80;;;15.20;99.90;;;;;;4997464;28;20281;-67
2022/09/15 02:40:16;;;;;;;8.70;1.63;;;15.30;99.90;;;;;;4997281;28;20820;-67
2022/09/15 02:42:54;;;;;;;7.97;2.00;;;15.20;99.90;;;;;;4997336;28;20273;-67
2022/09/15 02:45:21;;;;;;;6.23;1.23;;;15.20;99.90;;;;;;4998073;28;20269;-67
2022/09/15 02:47:49;;;;;;;6.50;1.47;;;15.20;99.90;;;;;;4997244;28;20290;-67
2022/09/15 02:50:16;;;;;;;5.80;1.43;;;15.20;99.90;;;;;;4997102;28;20308;-67
2022/09/15 02:52:42;;;;;;;9.87;1.70;;;15.30;99.90;;;;;;4997080;28;20038;-67
2022/09/15 02:55:09;;;;;;;14.00;2.00;;;15.30;99.90;;;;;;4997062;28;20283;-67
2022/09/15 02:57:34;;;;;;;7.50;1.67;;;15.20;99.90;;;;;;4997084;28;20050;-67
2022/09/15 03:00:12;;;;;;;7.20;1.47;;;15.20;99.90;;;;;;4996990;28;20054;-68
2022/09/15 03:02:44;;;;;;;10.53;1.90;;;15.20;99.90;;;;;;4997051;28;20054;-67
2022/09/15 03:05:11;;;;;;;5.33;1.20;;;15.20;99.90;;;;;;4997662;28;20300;-67
2022/09/15 03:07:37;;;;;;;7.77;1.47;;;15.20;99.90;;;;;;4996890;28;20285;-67
2022/09/15 03:10:07;;;;;;;7.27;1.23;;;15.20;99.90;;;;;;4996391;28;20417;-67
2022/09/15 03:12:41;;;;;;;6.60;1.80;;;15.20;99.90;;;;;;4997082;28;20435;-67
2022/09/15 03:15:08;;;;;;;9.50;2.00;;;15.20;99.90;;;;;;4996674;28;20277;-67
2022/09/15 03:17:35;;;;;;;5.50;1.20;;;15.20;99.90;;;;;;4996714;28;20282;-67
2022/09/15 03:20:03;;;;;;;6.07;1.23;;;15.20;99.90;;;;;;4997169;28;20282;-69
2022/09/15 03:22:29;;;;;;;7.77;1.67;;;15.20;99.90;;;;;;4997147;28;20317;-67
2022/09/15 03:24:54;;;;;;;6.17;1.37;;;15.10;99.90;;;;;;4996874;28;20313;-67
2022/09/15 03:27:20;;;;;;;8.63;2.03;;;15.10;99.90;;;;;;4997332;28;20085;-67
2022/09/15 03:29:46;;;;;;;8.97;1.90;;;15.10;99.90;;;;;;4996507;28;20371;-67
2022/09/15 03:32:11;;;;;;;6.03;1.30;;;15.10;99.90;;;;;;4996299;28;20046;-67
2022/09/15 03:34:37;;;;;;;6.87;1.97;;;15.10;99.90;;;;;;4996312;28;20062;-67
2022/09/15 03:37:03;;;;;;;8.03;1.37;;;15.10;99.90;;;;;;4996355;28;20050;-69
2022/09/15 03:39:28;;;;;;;6.13;1.53;;;15.10;99.90;;;;;;4997098;28;20387;-67
2022/09/15 03:41:54;;;;;;;6.90;1.30;;;15.10;99.90;;;;;;4995779;28;20133;-67
2022/09/15 03:44:20;;;;;;;9.37;1.90;;;15.10;99.90;;;;;;4995475;28;20046;-67
2022/09/15 03:46:46;;;;;;;6.17;1.70;;;15.10;99.90;;;;;;4996190;28;20549;-67
2022/09/15 03:49:12;;;;;;;9.23;1.80;;;15.00;99.90;;;;;;4996115;28;20158;-67
2022/09/15 03:51:37;;;;;;;5.50;1.60;;;15.00;99.90;;;;;;4996063;28;20137;-67
2022/09/15 03:54:03;;;;;;;6.77;1.30;;;14.90;99.90;;;;;;4996557;28;20077;-67
2022/09/15 03:56:31;;;;;;;8.87;2.43;;;14.90;99.90;;;;;;4996510;28;20042;-67
2022/09/15 03:59:00;;;;;;;9.67;2.10;;;15.00;99.90;;;;;;4995977;28;20089;-67
2022/09/15 04:01:26;;;;;;;6.83;1.33;;;14.90;99.90;;;;;;4995902;28;20296;-67
2022/09/15 04:03:52;;;;;;;6.43;1.80;;;15.00;99.90;;;;;;4996864;28;20278;-67
2022/09/15 04:06:20;;;;;;;6.57;1.77;;;15.00;99.90;;;;;;4996181;28;20282;-67
2022/09/15 04:08:46;;;;;;;7.53;1.73;;;15.00;99.90;;;;;;4995754;28;20418;-67
2022/09/15 04:11:13;;;;;;;7.23;2.13;;;15.00;99.90;;;;;;4995661;28;20325;-67
2022/09/15 04:13:40;;;;;;;13.07;1.87;;;15.00;99.90;;;;;;4996355;28;20327;-67
2022/09/15 04:16:09;;;;;;;9.00;1.73;;;14.90;99.90;;;;;;4994585;28;20290;-67
2022/09/15 04:18:35;;;;;;;8.93;1.63;;;15.00;99.90;;;;;;4996063;28;20780;-67
2022/09/15 04:21:04;;;;;;;14.10;2.20;;;14.90;99.90;;;;;;4995550;28;20352;-67
2022/09/15 04:23:31;;;;;;;9.10;1.90;;;15.00;99.90;;;;;;4995408;28;20309;-67
2022/09/15 04:26:01;;;;;;;8.97;1.77;;;15.00;99.90;;;;;;4995140;28;20292;-67
2022/09/15 04:28:30;;;;;;;9.83;1.87;;;15.00;99.90;;;;;;4996131;28;20273;-67
2022/09/15 04:31:04;;;;;;;7.57;1.80;;;15.00;99.90;;;;;;4995256;28;20289;-67
2022/09/15 04:33:30;;;;;;;9.77;1.93;;;15.00;99.90;;;;;;4995921;28;20352;-67
2022/09/15 04:36:10;;;;;;;8.13;1.80;;;15.00;99.90;;;;;;4995167;28;20482;-67
2022/09/15 04:38:37;;;;;;;6.43;1.77;;;15.00;99.90;;;;;;4995783;28;20395;-67
2022/09/15 04:41:03;;;;;;;10.33;2.30;;;15.00;99.90;;;;;;4995600;28;20372;-67
2022/09/15 04:43:29;;;;;;;11.10;2.10;;;15.00;99.90;;;;;;4995309;28;20299;-67
2022/09/15 04:45:55;;;;;;;10.17;2.03;;;15.00;99.90;;;;;;4995014;28;20425;-67
2022/09/15 04:48:22;;;;;;;10.93;1.87;;;15.00;99.90;;;;;;4995214;28;20368;-67
2022/09/15 04:50:48;;;;;;;11.10;2.43;;;14.90;99.90;;;;;;4995702;28;20125;-67
2022/09/15 04:53:14;;;;;;;11.47;2.83;;;15.00;99.90;;;;;;4994725;28;20302;-67
2022/09/15 04:55:39;;;;;;;7.17;1.60;;;14.90;99.90;;;;;;4994799;28;20280;-67
2022/09/15 04:58:05;;;;;;;7.73;1.80;;;15.00;99.90;;;;;;4995383;28;20383;-67
2022/09/15 05:00:36;;;;;;;16.17;2.90;;;15.00;99.90;;;;;;4994726;28;20057;-67
2022/09/15 05:03:01;;;;;;;8.73;1.67;;;14.90;99.90;;;;;;4995041;28;20438;-67
2022/09/15 05:05:27;;;;;;;8.53;1.70;;;15.00;99.90;;;;;;4995146;28;20281;-67
2022/09/15 05:07:53;;;;;;;7.87;1.97;;;14.90;99.90;;;;;;4994745;28;20133;-67
2022/09/15 05:10:19;;;;;;;15.47;2.67;;;14.90;99.90;;;;;;4994664;28;20043;-67
2022/09/15 05:12:45;;;;;;;13.67;2.07;;;14.90;99.90;;;;;;4995074;28;20387;-67
2022/09/15 05:15:11;;;;;;;14.43;2.37;;;14.90;99.90;;;;;;4994645;28;20058;-67
2022/09/15 05:17:37;;;;;;;9.93;2.13;;;14.90;99.90;;;;;;4994590;28;20046;-67
2022/09/15 05:20:04;;;;;;;12.73;2.47;;;14.90;99.90;;;;;;4995135;28;20129;-67
2022/09/15 05:22:30;;;;;;;7.83;2.50;;;14.80;99.90;;;;;;4994405;28;20043;-67
2022/09/15 05:24:56;;;;;;;11.53;2.30;;;14.90;99.90;;;;;;4993464;28;20285;-67
2022/09/15 05:27:22;;;;;;;8.37;1.77;;;14.90;99.90;;;;;;4994983;28;20282;-67
2022/09/15 05:29:48;;;;;;;6.97;1.37;;;14.90;99.90;;;;;;4993107;28;20319;-67
2022/09/15 05:32:13;;;;;;;9.77;1.87;;;14.90;99.90;;;;;;4994751;28;20054;-67
2022/09/15 05:34:39;;;;;;;8.37;1.77;;;14.80;99.90;;;;;;4993907;28;20054;-67
2022/09/15 05:37:05;;;;;;;9.03;2.03;;;14.90;99.90;;;;;;4993058;28;20136;-67
2022/09/15 05:39:31;;;;;;;10.00;2.87;;;14.90;99.90;;;;;;4993896;28;20088;-67
2022/09/15 05:41:56;;;;;;;11.13;1.90;;;14.90;99.90;;;;;;4994440;28;20046;-67
2022/09/15 05:44:22;;;;;;;9.33;1.83;;;15.00;99.90;;;;;;4994117;28;20501;-67
2022/09/15 05:46:48;;;;;;;8.47;1.70;;;15.00;99.90;;;;;;4994162;28;20050;-67
2022/09/15 05:49:14;;;;;;;10.70;1.50;;;15.00;99.90;;;;;;4994651;28;20085;-67
2022/09/15 05:51:40;;;;;;;8.57;1.90;;;15.00;99.90;;;;;;4993992;28;20294;-67
2022/09/15 05:54:06;;;;;;;9.10;1.70;;;15.00;99.90;;;;;;4994599;28;20050;-67
2022/09/15 05:56:32;;;;;;;8.10;1.67;;;15.10;99.90;;;;;;4994052;28;20360;-67
2022/09/15 05:58:58;;;;;;;7.50;1.57;;;15.10;99.90;;;;;;4993979;28;20133;-67
2022/09/15 06:01:28;;;;;;;7.13;1.63;;;15.10;99.90;;;;;;4993932;28;20129;-67
2022/09/15 06:03:55;;;;;;;8.60;2.07;;;15.10;99.90;;;;;;4993974;28;20042;-67
2022/09/15 06:06:22;;;;;;;10.90;2.30;;;15.10;99.90;;;;;;4995326;28;20283;-67
2022/09/15 06:08:51;;;;;;;9.33;2.30;;;15.20;99.90;;;;;;4998553;28;20655;-67
2022/09/15 06:11:19;;;;;;;6.70;1.50;;;15.20;99.90;;;;;;4996785;28;20487;-67
2022/09/15 06:13:45;;;;;;;9.70;1.80;;;15.30;99.90;;;;;;4997954;28;20769;-67
2022/09/15 06:16:14;;;;;;;9.70;1.70;;;15.30;99.90;;;;;;4996400;28;20283;-67
2022/09/15 06:18:40;;;;;;;8.57;2.10;;;15.40;99.90;;;;;;4997778;28;20285;-67
2022/09/15 06:21:12;;;;;;;10.23;1.90;;;15.50;99.90;;;;;;4997816;28;20615;-67
2022/09/15 06:23:39;;;;;;;12.80;2.73;;;15.60;99.90;;;;;;4998217;28;20050;-67
2022/09/15 06:26:17;;;;;;;10.37;1.73;;;15.70;99.90;;;;;;4997667;28;20130;-67
2022/09/15 06:28:57;;;;;;;11.57;2.37;;;15.60;99.90;;;;;;4980151;28;20329;-67
2022/09/15 06:31:25;;;;;;;8.83;2.03;;;15.60;99.90;;;;;;4997392;28;20356;-68
2022/09/15 06:33:53;;;;;;;7.50;1.67;;;15.60;99.90;;;;;;4997609;28;20043;-67
2022/09/15 06:36:20;;;;;;;9.63;2.27;;;15.50;99.90;;;;;;4997600;28;20281;-67
2022/09/15 06:38:46;;;;;;;12.83;1.63;;;15.40;99.90;;;;;;4997728;28;20280;-68
2022/09/15 06:41:12;;;;;;;7.43;1.83;;;15.30;99.90;;;;;;4997245;28;20285;-67
2022/09/15 06:43:39;;;;;;;7.77;1.73;;;15.20;99.90;;;;;;4997473;28;20281;-67
2022/09/15 06:46:07;;;;;;;6.73;1.40;;;15.20;99.90;;;;;;4997058;28;20766;-67
2022/09/15 06:48:34;;;;;;;8.77;1.63;;;15.20;99.90;;;;;;4997735;28;20606;-67
2022/09/15 06:51:01;;;;;;;7.83;1.70;;;15.20;99.90;;;;;;4997268;28;20049;-68
2022/09/15 06:53:31;;;;;;;7.77;1.90;;;15.30;99.90;;;;;;4996470;28;20297;-67
2022/09/15 06:56:11;;;;;;;5.33;1.30;;;15.30;99.90;;;;;;4997108;28;20776;-67
2022/09/15 06:58:39;;;;;;;6.93;1.43;;;15.40;99.90;;;;;;4997063;28;20344;-68
2022/09/15 07:01:09;;;;;;;7.77;1.47;;;15.40;99.90;;;;;;4997108;28;20281;-67
2022/09/15 07:03:40;;;;;;;8.00;1.83;;;15.50;99.90;;;;;;4997635;28;20294;-67
2022/09/15 07:06:06;;;;;;;8.63;2.23;;;15.60;99.90;;;;;;4996925;28;20142;-67
2022/09/15 07:08:33;;;;;;;8.60;1.53;;;15.50;99.90;;;;;;4996964;28;20277;-67
2022/09/15 07:10:59;;;;;;;5.93;1.53;;;15.50;99.90;;;;;;4997244;28;20289;-67
2022/09/15 07:13:24;;;;;;;6.13;1.60;;;15.60;99.90;;;;;;4996717;28;20638;-67
2022/09/15 07:15:52;;;;;;;8.23;2.00;;;15.60;99.90;;;;;;4996732;28;20064;-67
2022/09/15 07:18:18;;;;;;;7.70;1.50;;;15.70;99.90;;;;;;4996949;28;20042;-67
2022/09/15 07:20:43;;;;;;;8.27;1.33;;;15.80;99.90;;;;;;4996727;28;20105;-67
2022/09/15 07:23:09;;;;;;;5.57;1.27;;;15.80;99.90;;;;;;4996432;28;20058;-67
2022/09/15 07:25:35;;;;;;;5.33;1.30;;;15.90;99.90;;;;;;4996248;28;20066;-67
2022/09/15 07:28:01;;;;;;;4.03;1.10;;;16.00;99.90;;;;;;4995464;28;20487;-67
2022/09/15 07:30:27;;;;;;;7.37;1.53;;;16.00;99.90;;;;;;4995112;28;20483;-67
2022/09/15 07:32:53;;;;;;;7.90;1.90;;;16.10;99.90;;;;;;4995646;28;20050;-67
2022/09/15 07:35:20;;;;;;;8.17;1.60;;;16.10;99.90;;;;;;4995376;28;20502;-67
2022/09/15 07:37:50;;;;;;;6.23;1.87;;;16.20;99.90;;;;;;4994645;28;20058;-67
2022/09/15 07:40:16;;;;;;;9.50;1.40;;;16.30;99.90;;;;;;4996106;28;20145;-67
2022/09/15 07:42:43;;;;;;;5.93;1.57;;;16.30;99.90;;;;;;4995240;28;20450;-67
2022/09/15 07:45:10;;;;;;;7.50;1.67;;;16.40;99.90;;;;;;4995233;28;20042;-67
2022/09/15 07:47:37;;;;;;;8.20;1.40;;;16.40;99.90;;;;;;4995691;28;20038;-67
2022/09/15 07:50:04;;;;;;;7.40;1.77;;;16.40;99.90;;;;;;4995102;28;20085;-67
2022/09/15 07:52:29;;;;;;;6.73;1.57;;;16.30;99.90;;;;;;4994976;28;20093;-67
2022/09/15 07:54:55;;;;;;;7.17;1.80;;;16.30;99.90;;;;;;4995850;28;20506;-67
2022/09/15 07:57:21;;;;;;;8.53;1.80;;;16.30;99.90;;;;;;4995342;28;20057;-67
2022/09/15 07:59:46;;;;;;;8.83;1.63;;;16.20;99.90;;;;;;4994988;28;20474;-67
2022/09/15 08:02:18;;;;;;;8.03;1.70;;;16.20;99.90;;;;;;4995198;28;20074;-67
2022/09/15 08:04:44;;;;;;;10.37;1.80;;;16.20;99.90;;;;;;4995413;28;20049;-67
2022/09/15 08:07:11;;;;;;;9.37;1.90;;;16.30;99.90;;;;;;4994577;28;20133;-67
2022/09/15 08:09:37;;;;;;;9.53;1.67;;;16.60;99.90;;;;;;4994750;28;20046;-67
2022/09/15 08:12:04;;;;;;;10.90;2.10;;;16.90;99.90;;;;;;4994653;28;20082;-67
2022/09/15 08:14:32;;;;;;;9.70;1.53;;;17.20;99.90;;;;;;4994724;28;20097;-67
2022/09/15 08:17:03;;;;;;;5.83;1.57;;;17.30;99.90;;;;;;4995209;28;20042;-67
2022/09/15 08:19:31;;;;;;;6.73;2.03;;;17.50;99.90;;;;;;4995205;28;20054;-67
2022/09/15 08:21:57;;;;;;;5.40;2.00;;;17.70;99.90;;;;;;4994554;28;20038;-67
2022/09/15 08:24:22;;;;;;;11.87;2.13;;;17.70;99.90;;;;;;4993606;28;20054;-67
2022/09/15 08:26:49;;;;;;;9.53;2.07;;;17.60;99.90;;;;;;4956763;28;1109466;-67
2022/09/15 08:29:16;;;;;;;9.83;1.77;;;17.60;99.90;;;;;;4994426;28;20469;-67
2022/09/15 08:31:43;;;;;;;4.97;1.47;;;17.50;99.90;;;;;;4995797;28;20042;-67
2022/09/15 08:34:12;;;;;;;7.97;2.10;;;17.50;99.90;;;;;;4995296;28;20427;-67
2022/09/15 08:36:38;;;;;;;11.40;2.20;;;17.60;99.90;;;;;;4995247;28;20046;-67
2022/09/15 08:39:04;;;;;;;10.13;2.03;;;17.60;99.90;;;;;;4994040;28;20443;-67
2022/09/15 08:41:43;;;;;;;9.37;2.20;;;17.70;99.90;;;;;;4995195;28;20046;-67
2022/09/15 08:44:26;;;;;;;9.50;2.07;;;17.80;99.90;;;;;;4994836;28;20521;-67
2022/09/15 08:47:24;;;;;;;8.17;1.93;;;17.90;99.90;;;;;;4995074;28;20053;-66
2022/09/15 08:50:04;;;;;;;7.17;1.90;;;18.00;99.90;;;;;;4961855;28;20057;-67
2022/09/15 08:52:41;;;;;;;6.10;1.70;;;18.10;99.90;;;;;;4994858;28;20065;-67
2022/09/15 08:55:19;;;;;;;4.60;1.43;;;18.10;99.90;;;;;;4994940;28;20058;-67
2022/09/15 08:57:45;;;;;;;6.93;1.63;;;18.20;99.90;;;;;;4994833;28;20094;-67
2022/09/15 09:00:15;;;;;;;6.83;1.50;;;18.20;99.90;;;;;;4994894;28;20057;-67
2022/09/15 09:03:15;;;;;;;8.63;1.73;;;18.20;99.90;;;;;;4994816;28;20046;-67
2022/09/15 09:05:53;;;;;;;5.50;1.20;;;18.30;99.90;;;;;;4994776;28;20089;-67
2022/09/15 09:08:36;;;;;;;3.03;1.10;;;18.50;99.90;;;;;;4995249;28;20104;-67
2022/09/15 09:11:15;;;;;;;8.17;1.17;;;18.50;99.90;;;;;;4994726;28;20114;-67
2022/09/15 09:14:02;;;;;;;5.17;1.10;;;18.60;99.90;;;;;;4994996;28;20138;-67
2022/09/15 09:16:46;;;;;;;3.80;1.03;;;18.60;99.90;;;;;;4994643;28;20054;-66
2022/09/15 09:19:47;;;;;;;4.83;1.27;;;18.60;99.90;;;;;;4994629;28;20140;-66
2022/09/15 09:22:19;;;;;;;6.07;1.33;;;18.60;99.90;;;;;;4995087;28;20057;-66
2022/09/15 09:24:51;;;;;;;4.10;1.13;;;18.70;99.90;;;;;;4995033;28;20129;-66
2022/09/15 09:27:23;;;;;;;6.73;1.30;;;18.70;99.90;;;;;;4994313;28;20138;-66
2022/09/15 09:29:57;;;;;;;3.67;1.20;;;18.60;99.90;;;;;;4994387;28;20542;-67
2022/09/15 09:32:31;;;;;;;9.70;2.00;;;18.50;99.90;;;;;;4994394;28;20043;-66
2022/09/15 09:35:00;;;;;;;10.07;1.60;;;18.50;99.90;;;;;;4994014;28;20526;-66
2022/09/15 09:37:27;;;;;;;7.10;1.80;;;18.50;99.90;;;;;;4993946;28;20054;-66
2022/09/15 09:39:52;;;;;;;7.63;1.30;;;18.60;99.90;;;;;;4994137;28;20047;-67
2022/09/15 09:42:20;;;;;;;8.83;1.87;;;18.80;99.90;;;;;;4994652;28;20433;-66
2022/09/15 09:44:46;;;;;;;9.33;1.80;;;18.90;99.90;;;;;;4994097;28;20054;-67
2022/09/15 09:47:12;;;;;;;5.97;1.23;;;18.80;99.90;;;;;;4994121;28;20053;-66
2022/09/15 09:49:48;;;;;;;10.97;2.47;;;18.80;99.90;;;;;;4994083;28;20046;-66
2022/09/15 09:52:38;;;;;;;8.63;1.87;;;18.60;99.90;;;;;;4994004;28;20108;-66
2022/09/15 09:55:21;;;;;;;10.93;2.00;;;18.40;99.90;;;;;;4994623;28;20050;-66
2022/09/15 09:57:48;;;;;;;8.27;2.17;;;18.20;99.90;;;;;;4994354;28;20081;-66
2022/09/15 10:00:30;;;;;;;9.37;2.07;;;17.90;99.90;;;;;;4993999;28;20050;-66
2022/09/15 10:02:57;;;;;;;7.27;2.03;;;17.70;99.90;;;;;;4994081;28;20046;-66
2022/09/15 10:05:23;;;;;;;10.67;2.33;;;17.60;99.90;;;;;;4993911;28;20046;-66
2022/09/15 10:07:49;;;;;;;10.73;1.73;;;17.50;99.90;;;;;;4994223;28;20050;-66
2022/09/15 10:10:32;;;;;;;7.33;1.60;;;17.60;99.90;;;;;;4993898;28;20378;-66
2022/09/15 10:13:01;;;;;;;9.03;1.73;;;17.70;99.90;;;;;;4992707;28;20050;-66
2022/09/15 10:15:30;;;;;;;5.70;1.63;;;17.80;99.90;;;;;;4993760;28;20061;-66
2022/09/15 10:17:56;;;;;;;8.33;1.90;;;17.90;99.90;;;;;;4993830;28;20384;-66
2022/09/15 10:20:32;;;;;;;5.17;1.23;;;17.90;99.90;;;;;;4994625;28;20049;-66
2022/09/15 10:23:28;;;;;;;9.27;2.10;;;17.90;99.90;;;;;;4994077;28;20479;-66
2022/09/15 10:25:55;;;;;;;;;;;18.00;99.90;;;;;;4989400;28;20054;-66
2022/09/15 10:28:24;;;;;;;8.13;1.63;;;18.00;99.90;;;;;;4993817;28;20000;-66
2022/09/15 10:31:06;;;;;;;8.20;2.10;;;17.90;99.90;;;;;;4993725;28;20043;-67
2022/09/15 10:33:37;;;;;;;7.73;1.80;;;17.90;99.90;;;;;;4993375;28;20498;-66
2022/09/15 10:36:27;;;;;;;10.73;1.93;;;18.00;99.90;;;;;;4994312;28;20043;-66
2022/09/15 10:39:35;;;;;;;8.27;1.73;;;18.10;99.90;;;;;;4993295;28;20364;-67
2022/09/15 10:42:24;;;;;;;8.53;2.33;;;18.20;99.90;;;;;;4994199;28;20051;-66
2022/09/15 10:45:20;;;;;;;11.23;1.53;;;18.30;99.90;;;;;;4985426;28;20133;-67
2022/09/15 10:48:24;;;;;;;7.70;1.83;;;18.30;99.90;;;;;;4992577;28;20050;-66
2022/09/15 10:51:10;;;;;;;7.10;1.50;;;18.20;99.90;;;;;;4993546;28;20085;-67
2022/09/15 10:53:54;;;;;;;6.40;1.80;;;18.10;99.90;;;;;;4996718;28;20057;-66
2022/09/15 10:56:33;;;;;;;7.43;1.50;;;18.10;99.90;;;;;;4997510;28;20081;-66
2022/09/15 10:59:17;;;;;;;5.80;1.33;;;18.10;99.90;;;;;;4997738;28;20294;-66
2022/09/15 11:02:19;;;;;;;3.67;1.15;;;18.20;99.90;;;;;;4997112;28;20054;-66
2022/09/15 11:04:52;;;;;;;6.70;1.10;;;18.20;99.90;;;;;;4997126;28;20050;-66
2022/09/15 11:07:45;;;;;;;3.97;1.27;;;18.20;99.90;;;;;;4997314;28;20054;-66
2022/09/15 11:10:40;;;;;;;4.10;1.03;;;18.30;99.90;;;;;;4997509;28;20058;-66
2022/09/15 11:13:19;;;;;;;4.10;1.00;;;18.30;99.90;;;;;;4996050;28;20053;-66
2022/09/15 11:15:51;;;;;;;5.77;1.60;;;18.30;99.90;;;;;;4997416;28;20050;-66
2022/09/15 11:18:17;;;;;;;5.83;1.20;;;18.30;99.90;;;;;;4995581;28;20050;-66
2022/09/15 11:21:08;;;;;;;5.67;1.27;;;18.20;99.90;;;;;;4997308;28;20112;-66
2022/09/15 11:24:10;;;;;;;3.87;1.23;;;18.20;99.90;;;;;;4996436;28;20491;-66
2022/09/15 11:27:02;;;;;;;3.77;1.20;;;18.20;99.90;;;;;;4995385;28;20058;-66
2022/09/15 11:29:38;;;;;;;5.93;1.97;;;18.20;99.90;;;;;;4996897;28;20129;-66
2022/09/15 11:32:12;;;;;;;4.83;1.33;;;18.20;99.90;;;;;;4996503;28;20038;-66
2022/09/15 11:34:55;;;;;;;3.37;1.03;;;18.20;99.90;;;;;;4996784;28;20050;-66
2022/09/15 11:37:37;;;;;;;6.83;1.57;;;18.30;99.90;;;;;;4995448;28;20495;-66
2022/09/15 11:40:22;;;;;;;3.47;1.10;;;18.30;99.90;;;;;;4996457;28;20046;-66
2022/09/15 11:42:51;;;;;;;;;;;18.30;99.10;;;;;;4996524;28;20376;-66
2022/09/15 11:45:24;;;;;;;4.10;1.70;;;18.30;97.70;;;;;;4996311;28;19922;-66
2022/09/15 11:48:11;;;;;;;4.50;1.30;;;18.30;98.00;;;;;;4997020;28;20439;-66
2022/09/15 11:50:42;;;;;;;4.47;1.17;;;18.30;97.80;;;;;;4996266;28;20120;-66
2022/09/15 11:53:17;;;;;;;3.93;1.20;;;18.30;97.80;;;;;;4996121;28;20046;-66
2022/09/15 11:55:59;;;;;;;6.40;1.57;;;18.30;97.90;;;;;;4996208;28;20056;-66
2022/09/15 11:58:44;;;;;;;5.37;1.23;;;18.30;98.10;;;;;;4996512;28;20439;-66
2022/09/15 12:01:09;;;;;;;4.88;1.60;;;18.20;98.60;;;;;;4995861;28;20050;-66
2022/09/15 12:03:46;;;;;;;5.33;1.30;;;18.10;98.80;;;;;;4994675;28;20051;-66
2022/09/15 12:06:29;;;;;;;4.10;1.37;;;18.10;99.40;;;;;;4996138;28;20050;-66
2022/09/15 12:09:04;;;;;;;7.40;2.00;;;18.10;99.90;;;;;;4996411;28;20472;-66
2022/09/15 12:11:38;;;;;;;4.82;1.30;;;18.10;99.50;;;;;;4995804;28;20057;-66
2022/09/15 12:14:04;;;;;;;6.50;1.47;;;18.20;99.90;;;;;;4996543;28;20057;-66
2022/09/15 12:16:33;;;;;;;6.17;1.73;;;18.30;99.90;;;;;;4995714;28;20050;-66
2022/09/15 12:19:10;;;;;;;6.07;1.20;;;18.40;99.70;;;;;;4995391;28;20058;-66
2022/09/15 12:21:49;;;;;;;4.57;1.33;;;18.50;99.50;;;;;;4996137;28;20058;-66
2022/09/15 12:24:38;;;;;;;6.33;1.50;;;18.50;98.70;;;;;;4995648;28;20046;-66
2022/09/15 12:27:03;;;;;;;3.57;1.10;;;18.60;98.40;;;;;;4958120;28;20043;-66
2022/09/15 12:29:36;;;;;;;4.93;1.33;;;18.60;98.70;;;;;;4995390;28;20137;-66
2022/09/15 12:32:22;;;;;;;14.73;1.70;;;18.70;97.50;;;;;;4995409;28;20046;-66
2022/09/15 12:35:03;;;;;;;4.70;1.40;;;18.80;97.20;;;;;;4995320;28;20049;-66
2022/09/15 12:37:40;;;;;;;6.40;1.67;;;18.80;97.20;;;;;;4995357;28;20057;-66
2022/09/15 12:40:23;;;;;;;10.73;2.23;;;18.80;97.70;;;;;;4994979;28;20517;-66
2022/09/15 12:42:49;;;;;;;6.47;1.50;;;18.60;99.90;;;;;;4995707;28;20053;-66
2022/09/15 12:45:23;;;;;;;6.00;1.50;;;18.50;99.90;;;;;;4994138;28;20050;-66
2022/09/15 12:48:15;;;;;;;7.57;1.60;;;18.50;99.90;;;;;;4995117;28;20134;-66
2022/09/15 12:50:42;;;;;;;5.93;1.47;;;18.30;99.90;;;;;;4992218;28;20069;-66
2022/09/15 12:53:19;;;;;;;6.57;2.00;;;18.30;99.90;;;;;;4994933;28;20047;-66
2022/09/15 12:55:54;;;;;;;5.63;1.60;;;18.40;99.90;;;;;;4995066;28;20046;-66
2022/09/15 12:58:33;;;;;;;8.70;1.63;;;18.40;99.90;;;;;;4995450;28;20046;-66
2022/09/15 13:01:17;;;;;;;7.53;2.10;;;18.50;99.90;;;;;;4995184;28;20042;-66
2022/09/15 13:03:42;;;;;;;8.10;1.43;;;18.60;99.90;;;;;;4994541;28;20518;-66
2022/09/15 13:06:25;;;;;;;6.23;1.60;;;18.70;99.90;;;;;;4994713;28;20054;-66
2022/09/15 13:08:53;;;;;;;7.20;1.80;;;18.80;99.90;;;;;;4995552;28;20046;-66
2022/09/15 13:11:35;;;;;;;6.07;1.57;;;18.90;99.90;;;;;;4994673;28;20046;-66
2022/09/15 13:14:07;;;;;;;4.60;1.10;;;18.90;99.90;;;;;;4994693;28;20171;-66